createdAt,value
2022-08-20T00:00:36.977Z,21.31
2022-08-20T00:01:41.919Z,21.32
2022-08-20T00:02:48.395Z,21.34
2022-08-20T00:03:53.501Z,21.36
2022-08-20T00:04:55.306Z,21.38
2022-08-20T00:06:19.641Z,21.39
2022-08-20T00:07:21.331Z,21.41
2022-08-20T00:08:23.632Z,21.44
2022-08-20T00:09:25.354Z,21.46
2022-08-20T00:10:33.961Z,21.48
2022-08-20T00:11:35.676Z,21.53
2022-08-20T00:12:38.499Z,21.55
2022-08-20T00:13:47.960Z,21.55
2022-08-20T00:14:49.642Z,21.54
2022-08-20T00:15:52.642Z,21.53
2022-08-20T00:16:54.361Z,21.51
2022-08-20T00:18:02.726Z,21.49
2022-08-20T00:19:08.315Z,21.47
2022-08-20T00:20:13.899Z,21.47
2022-08-20T00:21:19.072Z,21.44
2022-08-20T00:22:21.076Z,21.42
2022-08-20T00:23:24.085Z,21.38
2022-08-20T00:24:26.508Z,21.35
2022-08-20T00:25:29.529Z,21.33
2022-08-20T00:26:31.208Z,21.30
2022-08-20T00:27:33.196Z,21.27
2022-08-20T00:28:35.191Z,21.25
2022-08-20T00:29:36.856Z,21.23
2022-08-20T00:30:40.439Z,21.22
2022-08-20T00:31:43.199Z,21.21
2022-08-20T00:32:47.631Z,21.20
2022-08-20T00:33:51.254Z,21.19
2022-08-20T00:34:53.130Z,21.19
2022-08-20T00:35:56.793Z,21.19
2022-08-20T00:36:58.448Z,21.20
2022-08-20T00:38:00.845Z,21.22
2022-08-20T00:39:02.864Z,21.24
2022-08-20T00:40:07.478Z,21.24
2022-08-20T00:41:26.824Z,21.23
2022-08-20T00:42:28.544Z,21.24
2022-08-20T00:43:50.051Z,21.26
2022-08-20T00:44:51.769Z,21.29
2022-08-20T00:45:56.318Z,21.32
2022-08-20T00:46:58.555Z,21.34
2022-08-20T00:48:00.981Z,21.35
2022-08-20T00:49:05.983Z,21.35
2022-08-20T00:50:08.784Z,21.35
2022-08-20T00:51:33.560Z,21.35
2022-08-20T00:52:35.767Z,21.34
2022-08-20T00:53:38.408Z,21.30
2022-08-20T00:54:49.687Z,21.29
2022-08-20T00:55:51.573Z,21.29
2022-08-20T00:57:03.501Z,21.33
2022-08-20T00:58:09.658Z,21.37
2022-08-20T00:59:17.863Z,21.39
2022-08-20T01:00:29.386Z,21.40
2022-08-20T01:01:34.083Z,21.37
2022-08-20T01:02:57.570Z,21.29
2022-08-20T01:03:59.458Z,21.23
2022-08-20T01:05:01.796Z,21.21
2022-08-20T01:06:03.732Z,21.21
2022-08-20T01:07:07.111Z,21.23
2022-08-20T01:08:09.532Z,21.24
2022-08-20T01:09:11.994Z,21.26
2022-08-20T01:10:20.158Z,21.25
2022-08-20T01:11:39.930Z,21.25
2022-08-20T01:12:46.330Z,21.26
2022-08-20T01:13:48.963Z,21.27
2022-08-20T01:14:51.650Z,21.27
2022-08-20T01:15:56.893Z,21.26
2022-08-20T01:17:03.090Z,21.25
2022-08-20T01:18:07.534Z,21.24
2022-08-20T01:19:29.832Z,21.22
2022-08-20T01:20:39.662Z,21.20
2022-08-20T01:21:41.561Z,21.18
2022-08-20T01:23:09.135Z,21.17
2022-08-20T01:24:36.979Z,21.15
2022-08-20T01:26:09.612Z,21.13
2022-08-20T01:27:11.426Z,21.13
2022-08-20T01:28:16.281Z,21.12
2022-08-20T01:29:29.319Z,21.10
2022-08-20T01:30:32.793Z,21.08
2022-08-20T01:31:38.408Z,21.07
2022-08-20T01:32:40.189Z,21.07
2022-08-20T01:33:42.543Z,21.06
2022-08-20T01:34:46.341Z,21.07
2022-08-20T01:35:49.655Z,21.07
2022-08-20T01:36:55.297Z,21.07
2022-08-20T01:37:57.249Z,21.09
2022-08-20T01:39:00.301Z,21.10
2022-08-20T01:40:04.518Z,21.10
2022-08-20T01:41:28.776Z,21.09
2022-08-20T01:42:58.794Z,21.08
2022-08-20T01:44:02.217Z,21.07
2022-08-20T01:45:07.038Z,21.08
2022-08-20T01:46:10.257Z,21.07
2022-08-20T01:47:16.859Z,21.06
2022-08-20T01:48:21.457Z,21.05
2022-08-20T01:49:31.052Z,21.05
2022-08-20T01:50:38.902Z,21.03
2022-08-20T01:51:41.882Z,21.03
2022-08-20T01:52:55.414Z,21.03
2022-08-20T01:53:59.914Z,21.04
2022-08-20T01:55:02.435Z,21.03
2022-08-20T01:56:11.253Z,21.03
2022-08-20T01:57:17.366Z,21.03
2022-08-20T01:58:19.240Z,21.02
2022-08-20T01:59:21.130Z,21.03
2022-08-20T02:00:23.951Z,21.03
2022-08-20T02:01:46.020Z,21.03
2022-08-20T02:02:49.290Z,21.04
2022-08-20T02:03:51.298Z,21.07
2022-08-20T02:04:53.031Z,21.10
2022-08-20T02:05:54.706Z,21.13
2022-08-20T02:06:58.585Z,21.13
2022-08-20T02:08:01.842Z,21.12
2022-08-20T02:09:05.268Z,21.10
2022-08-20T02:10:11.052Z,21.12
2022-08-20T02:11:13.544Z,21.15
2022-08-20T02:12:16.645Z,21.19
2022-08-20T02:13:18.773Z,21.21
2022-08-20T02:14:20.938Z,21.22
2022-08-20T02:15:34.750Z,21.22
2022-08-20T02:16:43.429Z,21.20
2022-08-20T02:17:54.426Z,21.21
2022-08-20T02:19:02.381Z,21.22
2022-08-20T02:20:08.948Z,21.23
2022-08-20T02:21:10.729Z,21.22
2022-08-20T02:22:31.251Z,21.21
2022-08-20T02:23:32.967Z,21.22
2022-08-20T02:24:35.485Z,21.24
2022-08-20T02:25:41.527Z,21.23
2022-08-20T02:26:44.372Z,21.19
2022-08-20T02:27:48.684Z,21.19
2022-08-20T02:28:53.106Z,21.16
2022-08-20T02:29:54.821Z,21.13
2022-08-20T02:30:56.664Z,21.11
2022-08-20T02:32:24.575Z,21.08
2022-08-20T02:33:24.229Z,21.06
2022-08-20T02:34:26.324Z,21.09
2022-08-20T02:35:29.783Z,21.11
2022-08-20T02:36:32.096Z,21.15
2022-08-20T02:37:34.262Z,21.18
2022-08-20T02:38:35.960Z,21.17
2022-08-20T02:39:37.706Z,21.16
2022-08-20T02:40:41.016Z,21.13
2022-08-20T02:41:42.771Z,21.11
2022-08-20T02:42:44.894Z,21.12
2022-08-20T02:43:46.566Z,21.16
2022-08-20T02:44:48.228Z,21.19
2022-08-20T02:45:50.024Z,21.20
2022-08-20T02:46:51.934Z,21.19
2022-08-20T02:47:55.727Z,21.16
2022-08-20T02:48:58.578Z,21.12
2022-08-20T02:50:00.281Z,21.12
2022-08-20T02:51:06.599Z,21.12
2022-08-20T02:52:08.448Z,21.12
2022-08-20T02:53:10.129Z,21.13
2022-08-20T02:54:13.882Z,21.13
2022-08-20T02:55:26.949Z,21.14
2022-08-20T02:56:29.856Z,21.13
2022-08-20T02:57:32.099Z,21.15
2022-08-20T02:58:35.249Z,21.17
2022-08-20T02:59:36.960Z,21.18
2022-08-20T03:00:39.432Z,21.18
2022-08-20T03:01:41.154Z,21.18
2022-08-20T03:02:43.185Z,21.17
2022-08-20T03:03:45.388Z,21.17
2022-08-20T03:04:47.130Z,21.16
2022-08-20T03:05:52.267Z,21.16
2022-08-20T03:06:54.255Z,21.15
2022-08-20T03:07:59.889Z,21.14
2022-08-20T03:09:02.672Z,21.15
2022-08-20T03:10:04.746Z,21.15
2022-08-20T03:11:07.385Z,21.15
2022-08-20T03:12:09.739Z,21.15
2022-08-20T03:13:13.402Z,21.14
2022-08-20T03:14:15.070Z,21.13
2022-08-20T03:15:17.812Z,21.12
2022-08-20T03:16:20.161Z,21.11
2022-08-20T03:17:21.975Z,21.09
2022-08-20T03:18:26.482Z,21.08
2022-08-20T03:19:29.894Z,21.06
2022-08-20T03:20:32.715Z,21.05
2022-08-20T03:21:35.251Z,21.04
2022-08-20T03:22:37.052Z,21.04
2022-08-20T03:23:40.416Z,21.06
2022-08-20T03:24:42.364Z,21.07
2022-08-20T03:25:44.409Z,21.10
2022-08-20T03:26:46.649Z,21.12
2022-08-20T03:27:54.624Z,21.14
2022-08-20T03:28:56.810Z,21.17
2022-08-20T03:29:58.511Z,21.19
2022-08-20T03:31:02.406Z,21.19
2022-08-20T03:32:07.689Z,21.20
2022-08-20T03:33:10.311Z,21.20
2022-08-20T03:34:12.051Z,21.20
2022-08-20T03:35:16.428Z,21.20
2022-08-20T03:36:19.221Z,21.21
2022-08-20T03:37:24.348Z,21.21
2022-08-20T03:38:33.284Z,21.21
2022-08-20T03:39:35.307Z,21.23
2022-08-20T03:40:38.356Z,21.25
2022-08-20T03:41:40.283Z,21.25
2022-08-20T03:42:43.006Z,21.26
2022-08-20T03:43:45.989Z,21.27
2022-08-20T03:44:48.590Z,21.28
2022-08-20T03:46:01.217Z,21.28
2022-08-20T03:47:07.645Z,21.28
2022-08-20T03:48:16.237Z,21.25
2022-08-20T03:49:18.053Z,21.23
2022-08-20T03:50:24.517Z,21.23
2022-08-20T03:51:26.765Z,21.23
2022-08-20T03:52:29.444Z,21.24
2022-08-20T03:53:31.926Z,21.24
2022-08-20T03:54:33.820Z,21.27
2022-08-20T03:55:35.874Z,21.28
2022-08-20T03:56:38.146Z,21.30
2022-08-20T03:57:53.661Z,21.30
2022-08-20T03:58:55.962Z,21.31
2022-08-20T03:59:58.505Z,21.32
2022-08-20T04:01:01.358Z,21.30
2022-08-20T04:02:03.285Z,21.29
2022-08-20T04:03:08.297Z,21.29
2022-08-20T04:04:12.422Z,21.26
2022-08-20T04:05:14.774Z,21.25
2022-08-20T04:06:18.446Z,21.25
2022-08-20T04:07:25.912Z,21.27
2022-08-20T04:08:29.556Z,21.26
2022-08-20T04:09:31.362Z,21.26
2022-08-20T04:10:33.136Z,21.25
2022-08-20T04:11:34.908Z,21.25
2022-08-20T04:12:48.715Z,21.25
2022-08-20T04:13:54.770Z,21.24
2022-08-20T04:14:57.084Z,21.26
2022-08-20T04:16:03.609Z,21.25
2022-08-20T04:17:07.961Z,21.22
2022-08-20T04:18:11.845Z,21.19
2022-08-20T04:19:13.544Z,21.17
2022-08-20T04:20:19.162Z,21.17
2022-08-20T04:21:20.876Z,21.17
2022-08-20T04:22:22.629Z,21.20
2022-08-20T04:23:24.391Z,21.22
2022-08-20T04:24:32.034Z,21.23
2022-08-20T04:25:36.398Z,21.24
2022-08-20T04:26:38.096Z,21.27
2022-08-20T04:27:41.014Z,21.28
2022-08-20T04:28:42.637Z,21.29
2022-08-20T04:29:44.682Z,21.30
2022-08-20T04:30:51.711Z,21.29
2022-08-20T04:31:53.923Z,21.32
2022-08-20T04:32:56.452Z,21.34
2022-08-20T04:33:58.182Z,21.35
2022-08-20T04:35:00.835Z,21.35
2022-08-20T04:36:06.152Z,21.36
2022-08-20T04:37:16.556Z,21.36
2022-08-20T04:38:22.221Z,21.38
2022-08-20T04:39:23.962Z,21.41
2022-08-20T04:40:44.233Z,21.42
2022-08-20T04:41:45.970Z,21.40
2022-08-20T04:42:47.654Z,21.39
2022-08-20T04:43:57.082Z,21.40
2022-08-20T04:44:58.786Z,21.41
2022-08-20T04:46:06.310Z,21.43
2022-08-20T04:47:07.986Z,21.44
2022-08-20T04:48:14.666Z,21.44
2022-08-20T04:49:16.955Z,21.46
2022-08-20T04:50:20.397Z,21.47
2022-08-20T04:51:23.091Z,21.46
2022-08-20T04:52:28.215Z,21.45
2022-08-20T04:53:29.934Z,21.46
2022-08-20T04:54:32.437Z,21.45
2022-08-20T04:55:35.134Z,21.46
2022-08-20T04:56:39.767Z,21.46
2022-08-20T04:57:41.490Z,21.48
2022-08-20T04:58:48.804Z,21.50
2022-08-20T04:59:52.313Z,21.53
2022-08-20T05:01:01.116Z,21.55
2022-08-20T05:02:03.294Z,21.55
2022-08-20T05:03:07.066Z,21.54
2022-08-20T05:04:08.772Z,21.56
2022-08-20T05:05:11.003Z,21.57
2022-08-20T05:06:13.444Z,21.58
2022-08-20T05:07:18.943Z,21.58
2022-08-20T05:08:25.387Z,21.57
2022-08-20T05:09:27.036Z,21.58
2022-08-20T05:10:29.325Z,21.60
2022-08-20T05:11:34.221Z,21.62
2022-08-20T05:12:38.466Z,21.65
2022-08-20T05:13:40.551Z,21.68
2022-08-20T05:14:42.545Z,21.72
2022-08-20T05:15:48.608Z,21.75
2022-08-20T05:16:50.780Z,21.76
2022-08-20T05:18:00.572Z,21.78
2022-08-20T05:19:02.315Z,21.76
2022-08-20T05:20:06.662Z,21.74
2022-08-20T05:21:08.317Z,21.73
2022-08-20T05:22:09.945Z,21.71
2022-08-20T05:23:13.965Z,21.69
2022-08-20T05:24:16.486Z,21.67
2022-08-20T05:25:18.295Z,21.67
2022-08-20T05:26:20.238Z,21.68
2022-08-20T05:27:26.986Z,21.71
2022-08-20T05:28:32.842Z,21.73
2022-08-20T05:29:38.599Z,21.73
2022-08-20T05:30:43.258Z,21.71
2022-08-20T05:31:44.934Z,21.70
2022-08-20T05:32:48.767Z,21.70
2022-08-20T05:33:51.027Z,21.71
2022-08-20T05:34:52.904Z,21.72
2022-08-20T05:35:54.930Z,21.72
2022-08-20T05:36:56.742Z,21.75
2022-08-20T05:37:58.486Z,21.77
2022-08-20T05:39:00.233Z,21.81
2022-08-20T05:40:02.644Z,21.83
2022-08-20T05:41:05.352Z,21.86
2022-08-20T05:42:07.063Z,21.87
2022-08-20T05:43:10.267Z,21.91
2022-08-20T05:44:15.488Z,21.94
2022-08-20T05:45:18.166Z,21.96
2022-08-20T05:46:19.781Z,21.97
2022-08-20T05:47:27.906Z,22.00
2022-08-20T05:48:30.028Z,22.03
2022-08-20T05:49:32.247Z,22.06
2022-08-20T05:50:35.441Z,22.10
2022-08-20T05:51:38.027Z,22.14
2022-08-20T05:52:40.450Z,22.16
2022-08-20T05:53:42.092Z,22.19
2022-08-20T05:54:43.770Z,22.21
2022-08-20T05:55:46.238Z,22.25
2022-08-20T05:56:48.084Z,22.30
2022-08-20T05:57:50.516Z,22.34
2022-08-20T05:58:52.218Z,22.40
2022-08-20T05:59:53.927Z,22.47
2022-08-20T06:00:55.677Z,22.52
2022-08-20T06:01:57.370Z,22.56
2022-08-20T06:03:17.566Z,22.59
2022-08-20T06:04:25.149Z,22.62
2022-08-20T06:05:27.487Z,22.64
2022-08-20T06:06:46.316Z,22.68
2022-08-20T06:07:50.646Z,22.69
2022-08-20T06:08:52.551Z,22.72
2022-08-20T06:09:54.192Z,22.75
2022-08-20T06:10:56.402Z,22.78
2022-08-20T06:11:59.634Z,22.81
2022-08-20T06:13:02.981Z,22.85
2022-08-20T06:14:05.617Z,22.88
2022-08-20T06:15:07.924Z,22.88
2022-08-20T06:16:09.606Z,22.88
2022-08-20T06:17:17.527Z,22.90
2022-08-20T06:18:27.986Z,22.92
2022-08-20T06:19:32.489Z,22.96
2022-08-20T06:20:38.136Z,23.01
2022-08-20T06:21:41.056Z,23.05
2022-08-20T06:22:42.895Z,23.07
2022-08-20T06:23:57.088Z,23.08
2022-08-20T06:25:03.094Z,23.04
2022-08-20T06:26:07.642Z,23.00
2022-08-20T06:27:14.818Z,23.00
2022-08-20T06:28:17.224Z,23.00
2022-08-20T06:29:19.343Z,23.00
2022-08-20T06:30:21.400Z,22.99
2022-08-20T06:31:23.114Z,22.99
2022-08-20T06:32:28.782Z,23.01
2022-08-20T06:33:34.230Z,23.06
2022-08-20T06:34:36.723Z,23.09
2022-08-20T06:35:38.430Z,23.12
2022-08-20T06:36:40.089Z,23.15
2022-08-20T06:37:43.062Z,23.17
2022-08-20T06:38:45.886Z,23.19
2022-08-20T06:39:47.638Z,23.21
2022-08-20T06:40:49.369Z,23.22
2022-08-20T06:41:51.774Z,23.23
2022-08-20T06:42:56.820Z,23.25
2022-08-20T06:43:58.533Z,23.30
2022-08-20T06:45:00.555Z,23.36
2022-08-20T06:46:02.287Z,23.41
2022-08-20T06:47:04.973Z,23.44
2022-08-20T06:48:11.161Z,23.47
2022-08-20T06:49:17.126Z,23.50
2022-08-20T06:50:26.643Z,23.52
2022-08-20T06:51:28.389Z,23.57
2022-08-20T06:52:47.132Z,23.61
2022-08-20T06:53:51.798Z,23.65
2022-08-20T06:54:53.474Z,23.70
2022-08-20T06:55:59.211Z,23.74
2022-08-20T06:57:04.438Z,23.80
2022-08-20T06:58:22.284Z,23.82
2022-08-20T06:59:31.151Z,23.86
2022-08-20T07:00:36.459Z,23.88
2022-08-20T07:01:38.233Z,23.91
2022-08-20T07:02:40.757Z,23.93
2022-08-20T07:03:55.414Z,23.96
2022-08-20T07:04:57.909Z,23.98
2022-08-20T07:05:59.554Z,23.99
2022-08-20T07:07:01.297Z,24.00
2022-08-20T07:08:04.296Z,24.04
2022-08-20T07:09:05.933Z,24.07
2022-08-20T07:10:10.680Z,24.12
2022-08-20T07:11:12.422Z,24.15
2022-08-20T07:12:14.296Z,24.17
2022-08-20T07:13:16.403Z,24.20
2022-08-20T07:14:19.486Z,24.22
2022-08-20T07:15:23.857Z,24.23
2022-08-20T07:16:26.378Z,24.24
2022-08-20T07:17:28.147Z,24.27
2022-08-20T07:18:29.865Z,24.31
2022-08-20T07:19:31.688Z,24.34
2022-08-20T07:20:36.907Z,24.36
2022-08-20T07:21:38.648Z,24.39
2022-08-20T07:22:40.964Z,24.40
2022-08-20T07:23:42.840Z,24.43
2022-08-20T07:24:48.938Z,24.46
2022-08-20T07:25:50.950Z,24.51
2022-08-20T07:26:52.748Z,24.57
2022-08-20T07:28:08.966Z,24.63
2022-08-20T07:29:10.735Z,24.68
2022-08-20T07:30:55.887Z,24.73
2022-08-20T07:32:16.069Z,24.84
2022-08-20T07:33:23.556Z,24.93
2022-08-20T07:34:25.237Z,25.00
2022-08-20T07:35:27.288Z,25.08
2022-08-20T07:36:28.992Z,25.13
2022-08-20T07:37:31.471Z,25.24
2022-08-20T07:38:35.337Z,25.28
2022-08-20T07:39:37.028Z,25.29
2022-08-20T07:40:41.457Z,25.32
2022-08-20T07:41:43.306Z,25.36
2022-08-20T07:42:51.685Z,25.40
2022-08-20T07:43:53.433Z,25.43
2022-08-20T07:44:55.426Z,25.49
2022-08-20T07:46:01.339Z,25.54
2022-08-20T07:47:04.680Z,25.59
2022-08-20T07:48:12.240Z,25.61
2022-08-20T07:49:13.941Z,25.66
2022-08-20T07:50:21.769Z,25.68
2022-08-20T07:51:23.757Z,25.71
2022-08-20T07:52:25.409Z,25.74
2022-08-20T07:53:31.144Z,25.75
2022-08-20T07:54:38.019Z,25.72
2022-08-20T07:55:41.468Z,25.71
2022-08-20T07:57:05.123Z,25.77
2022-08-20T07:58:11.435Z,25.83
2022-08-20T07:59:13.829Z,25.88
2022-08-20T08:00:17.983Z,25.94
2022-08-20T08:01:25.948Z,25.99
2022-08-20T08:02:28.275Z,26.07
2022-08-20T08:03:39.697Z,26.11
2022-08-20T08:04:51.198Z,26.17
2022-08-20T08:05:52.870Z,26.23
2022-08-20T08:06:59.868Z,26.25
2022-08-20T08:08:07.128Z,26.25
2022-08-20T08:09:14.261Z,26.23
2022-08-20T08:10:22.018Z,26.20
2022-08-20T08:11:23.810Z,26.29
2022-08-20T08:12:36.326Z,26.43
2022-08-20T08:13:41.241Z,26.58
2022-08-20T08:14:46.293Z,26.70
2022-08-20T08:15:50.455Z,26.84
2022-08-20T08:16:55.286Z,26.94
2022-08-20T08:18:07.714Z,27.01
2022-08-20T08:19:11.876Z,27.06
2022-08-20T08:20:14.476Z,27.10
2022-08-20T08:21:17.710Z,27.14
2022-08-20T08:22:20.249Z,27.17
2022-08-20T08:23:31.697Z,27.21
2022-08-20T08:24:34.475Z,27.21
2022-08-20T08:25:36.207Z,27.20
2022-08-20T08:26:38.097Z,27.17
2022-08-20T08:27:40.838Z,27.14
2022-08-20T08:28:46.062Z,27.14
2022-08-20T08:29:49.702Z,27.14
2022-08-20T08:30:52.342Z,27.12
2022-08-20T08:31:53.976Z,27.11
2022-08-20T08:33:14.240Z,27.11
2022-08-20T08:34:15.965Z,27.10
2022-08-20T08:35:17.692Z,27.08
2022-08-20T08:36:19.409Z,27.07
2022-08-20T08:37:21.094Z,27.03
2022-08-20T08:38:23.811Z,26.99
2022-08-20T08:39:25.633Z,26.93
2022-08-20T08:40:34.135Z,26.87
2022-08-20T08:41:47.166Z,26.85
2022-08-20T08:42:58.109Z,26.82
2022-08-20T08:44:14.369Z,26.75
2022-08-20T08:45:19.230Z,26.68
2022-08-20T08:46:26.587Z,26.64
2022-08-20T08:47:34.564Z,26.64
2022-08-20T08:48:43.362Z,26.64
2022-08-20T08:49:48.003Z,26.63
2022-08-20T08:50:54.673Z,26.63
2022-08-20T08:52:07.498Z,26.64
2022-08-20T08:53:18.983Z,26.64
2022-08-20T08:54:24.782Z,26.65
2022-08-20T08:55:29.501Z,26.67
2022-08-20T08:56:31.380Z,26.67
2022-08-20T08:57:34.292Z,26.66
2022-08-20T08:58:36.249Z,26.68
2022-08-20T09:00:02.363Z,26.68
2022-08-20T09:01:06.858Z,26.69
2022-08-20T09:02:20.886Z,26.70
2022-08-20T09:03:29.386Z,26.74
2022-08-20T09:04:41.114Z,26.79
2022-08-20T09:05:53.818Z,26.83
2022-08-20T09:06:55.838Z,26.88
2022-08-20T09:08:02.558Z,26.92
2022-08-20T09:09:07.291Z,26.97
2022-08-20T09:10:09.114Z,27.03
2022-08-20T09:11:10.944Z,27.09
2022-08-20T09:12:19.043Z,27.15
2022-08-20T09:13:20.865Z,27.17
2022-08-20T09:14:24.976Z,27.22
2022-08-20T09:15:27.505Z,27.28
2022-08-20T09:16:52.093Z,27.31
2022-08-20T09:17:50.879Z,27.33
2022-08-20T09:18:53.191Z,27.37
2022-08-20T09:19:54.882Z,27.40
2022-08-20T09:20:56.645Z,27.41
2022-08-20T09:21:58.362Z,27.44
2022-08-20T09:23:00.042Z,27.45
2022-08-20T09:24:01.924Z,27.45
2022-08-20T09:25:04.469Z,27.46
2022-08-20T09:26:06.796Z,27.47
2022-08-20T09:27:08.916Z,27.49
2022-08-20T09:28:10.908Z,27.53
2022-08-20T09:29:15.115Z,27.55
2022-08-20T09:30:17.984Z,27.55
2022-08-20T09:31:20.246Z,27.54
2022-08-20T09:32:26.035Z,27.53
2022-08-20T09:33:28.173Z,27.50
2022-08-20T09:34:29.854Z,27.48
2022-08-20T09:35:31.539Z,27.48
2022-08-20T09:36:33.555Z,27.46
2022-08-20T09:37:37.650Z,27.44
2022-08-20T09:38:39.642Z,27.40
2022-08-20T09:39:41.923Z,27.36
2022-08-20T09:40:44.446Z,27.31
2022-08-20T09:41:46.120Z,27.25
2022-08-20T09:42:49.569Z,27.19
2022-08-20T09:43:51.227Z,27.13
2022-08-20T09:44:52.925Z,27.09
2022-08-20T09:45:54.673Z,27.08
2022-08-20T09:46:56.316Z,27.08
2022-08-20T09:47:58.543Z,27.07
2022-08-20T09:49:01.687Z,27.07
2022-08-20T09:50:04.473Z,27.05
2022-08-20T09:51:06.474Z,27.01
2022-08-20T09:52:17.998Z,26.97
2022-08-20T09:53:21.850Z,26.96
2022-08-20T09:54:23.715Z,26.94
2022-08-20T09:55:35.777Z,26.94
2022-08-20T09:56:37.459Z,26.93
2022-08-20T09:57:39.154Z,26.91
2022-08-20T09:58:53.329Z,26.88
2022-08-20T10:00:01.393Z,26.85
2022-08-20T10:01:13.874Z,26.80
2022-08-20T10:02:16.009Z,26.76
2022-08-20T10:03:18.262Z,26.72
2022-08-20T10:04:20.025Z,26.70
2022-08-20T10:05:21.681Z,26.67
2022-08-20T10:06:24.411Z,26.63
2022-08-20T10:07:26.206Z,26.59
2022-08-20T10:08:28.427Z,26.53
2022-08-20T10:09:30.237Z,26.46
2022-08-20T10:10:32.023Z,26.41
2022-08-20T10:11:33.833Z,26.36
2022-08-20T10:12:35.747Z,26.33
2022-08-20T10:13:37.400Z,26.30
2022-08-20T10:14:39.049Z,26.28
2022-08-20T10:15:41.973Z,26.26
2022-08-20T10:16:44.413Z,26.24
2022-08-20T10:17:46.034Z,26.20
2022-08-20T10:18:49.278Z,26.18
2022-08-20T10:19:50.972Z,26.14
2022-08-20T10:20:52.634Z,26.12
2022-08-20T10:21:54.951Z,26.08
2022-08-20T10:22:56.669Z,26.01
2022-08-20T10:23:59.193Z,25.94
2022-08-20T10:25:01.059Z,25.88
2022-08-20T10:26:02.813Z,25.84
2022-08-20T10:27:04.825Z,25.81
2022-08-20T10:28:07.058Z,25.80
2022-08-20T10:29:08.948Z,25.78
2022-08-20T10:30:11.406Z,25.73
2022-08-20T10:31:13.201Z,25.66
2022-08-20T10:32:17.211Z,25.62
2022-08-20T10:33:18.977Z,25.58
2022-08-20T10:34:20.737Z,25.55
2022-08-20T10:35:22.496Z,25.54
2022-08-20T10:36:24.147Z,25.56
2022-08-20T10:37:26.774Z,25.58
2022-08-20T10:38:28.404Z,25.58
2022-08-20T10:39:31.562Z,25.60
2022-08-20T10:40:33.368Z,25.66
2022-08-20T10:41:38.763Z,25.72
2022-08-20T10:42:42.759Z,25.78
2022-08-20T10:43:44.526Z,25.81
2022-08-20T10:44:46.895Z,25.86
2022-08-20T10:45:48.553Z,25.91
2022-08-20T10:46:50.251Z,25.94
2022-08-20T10:48:01.982Z,25.98
2022-08-20T10:49:04.855Z,26.05
2022-08-20T10:50:12.011Z,26.09
2022-08-20T10:51:13.675Z,26.11
2022-08-20T10:52:15.357Z,26.13
2022-08-20T10:53:17.846Z,26.15
2022-08-20T10:54:19.585Z,26.15
2022-08-20T10:55:21.269Z,26.16
2022-08-20T10:56:23.037Z,26.16
2022-08-20T10:57:28.624Z,26.16
2022-08-20T10:58:37.644Z,26.18
2022-08-20T10:59:44.855Z,26.20
2022-08-20T11:00:47.250Z,26.22
2022-08-20T11:01:49.020Z,26.24
2022-08-20T11:02:50.783Z,26.24
2022-08-20T11:03:52.474Z,26.18
2022-08-20T11:04:55.166Z,26.14
2022-08-20T11:05:56.934Z,26.11
2022-08-20T11:06:58.688Z,26.07
2022-08-20T11:08:04.090Z,26.07
2022-08-20T11:09:06.030Z,26.08
2022-08-20T11:10:13.720Z,26.09
2022-08-20T11:11:15.586Z,26.12
2022-08-20T11:12:19.820Z,26.14
2022-08-20T11:13:22.011Z,26.17
2022-08-20T11:14:23.711Z,26.19
2022-08-20T11:15:26.217Z,26.20
2022-08-20T11:16:28.022Z,26.17
2022-08-20T11:17:33.310Z,26.15
2022-08-20T11:18:38.825Z,26.22
2022-08-20T11:19:43.338Z,26.34
2022-08-20T11:20:45.087Z,26.44
2022-08-20T11:21:46.724Z,26.50
2022-08-20T11:22:48.430Z,26.54
2022-08-20T11:23:50.501Z,26.56
2022-08-20T11:24:53.297Z,26.58
2022-08-20T11:25:55.101Z,26.60
2022-08-20T11:26:56.902Z,26.61
2022-08-20T11:27:58.957Z,26.59
2022-08-20T11:29:00.747Z,26.51
2022-08-20T11:30:03.062Z,26.43
2022-08-20T11:31:04.809Z,26.35
2022-08-20T11:32:06.868Z,26.29
2022-08-20T11:33:08.903Z,26.27
2022-08-20T11:34:12.736Z,26.30
2022-08-20T11:35:41.215Z,26.35
2022-08-20T11:36:37.838Z,26.37
2022-08-20T11:37:40.467Z,26.34
2022-08-20T11:38:42.114Z,26.28
2022-08-20T11:39:44.199Z,26.29
2022-08-20T11:40:48.948Z,26.31
2022-08-20T11:41:55.338Z,26.30
2022-08-20T11:43:15.615Z,26.28
2022-08-20T11:44:21.091Z,26.24
2022-08-20T11:45:23.352Z,26.19
2022-08-20T11:46:28.487Z,26.15
2022-08-20T11:47:30.556Z,26.13
2022-08-20T11:48:32.265Z,26.17
2022-08-20T11:49:36.428Z,26.20
2022-08-20T11:50:38.129Z,26.21
2022-08-20T11:51:49.461Z,26.37
2022-08-20T11:52:52.039Z,26.63
2022-08-20T11:53:53.807Z,26.74
2022-08-20T11:54:56.521Z,26.84
2022-08-20T11:55:59.539Z,26.96
2022-08-20T11:57:01.221Z,27.05
2022-08-20T11:58:03.501Z,27.09
2022-08-20T11:59:05.479Z,27.08
2022-08-20T12:00:13.592Z,27.03
2022-08-20T12:01:15.256Z,26.95
2022-08-20T12:02:17.041Z,26.87
2022-08-20T12:03:18.780Z,26.78
2022-08-20T12:04:20.753Z,26.74
2022-08-20T12:05:23.982Z,26.73
2022-08-20T12:06:25.666Z,26.73
2022-08-20T12:07:27.514Z,26.72
2022-08-20T12:08:29.466Z,26.69
2022-08-20T12:09:31.107Z,26.63
2022-08-20T12:10:33.005Z,26.59
2022-08-20T12:11:34.692Z,26.54
2022-08-20T12:12:38.720Z,26.51
2022-08-20T12:13:48.808Z,26.50
2022-08-20T12:14:55.538Z,26.50
2022-08-20T12:15:58.017Z,26.55
2022-08-20T12:17:12.184Z,26.77
2022-08-20T12:18:13.829Z,27.14
2022-08-20T12:19:15.754Z,27.40
2022-08-20T12:20:17.529Z,27.58
2022-08-20T12:21:19.693Z,27.76
2022-08-20T12:22:25.241Z,27.82
2022-08-20T12:23:27.341Z,27.79
2022-08-20T12:24:29.633Z,27.72
2022-08-20T12:25:31.439Z,27.62
2022-08-20T12:26:33.089Z,27.52
2022-08-20T12:27:37.660Z,27.45
2022-08-20T12:28:39.856Z,27.38
2022-08-20T12:29:44.297Z,27.34
2022-08-20T12:30:45.916Z,27.31
2022-08-20T12:31:47.598Z,27.27
2022-08-20T12:32:49.609Z,27.20
2022-08-20T12:33:51.279Z,27.12
2022-08-20T12:34:53.892Z,27.04
2022-08-20T12:35:57.302Z,26.94
2022-08-20T12:37:05.085Z,26.84
2022-08-20T12:38:07.090Z,26.76
2022-08-20T12:39:09.375Z,26.71
2022-08-20T12:40:15.884Z,26.72
2022-08-20T12:41:17.577Z,26.75
2022-08-20T12:42:20.870Z,26.79
2022-08-20T12:43:25.004Z,26.84
2022-08-20T12:44:27.244Z,26.83
2022-08-20T12:45:29.739Z,26.85
2022-08-20T12:46:31.378Z,26.92
2022-08-20T12:47:37.014Z,27.01
2022-08-20T12:48:38.698Z,27.15
2022-08-20T12:49:48.465Z,27.40
2022-08-20T12:50:50.518Z,27.82
2022-08-20T12:51:52.319Z,28.07
2022-08-20T12:52:53.992Z,28.25
2022-08-20T12:53:55.666Z,28.49
2022-08-20T12:54:58.812Z,28.70
2022-08-20T12:56:02.455Z,28.87
2022-08-20T12:57:07.257Z,28.99
2022-08-20T12:58:10.797Z,29.01
2022-08-20T12:59:12.458Z,29.10
2022-08-20T13:00:27.524Z,29.18
2022-08-20T13:01:29.285Z,29.24
2022-08-20T13:02:31.199Z,29.14
2022-08-20T13:03:32.859Z,28.97
2022-08-20T13:04:44.872Z,28.81
2022-08-20T13:05:47.322Z,28.72
2022-08-20T13:06:49.495Z,28.63
2022-08-20T13:07:52.580Z,28.53
2022-08-20T13:08:54.221Z,28.36
2022-08-20T13:09:55.903Z,28.20
2022-08-20T13:10:57.713Z,28.08
2022-08-20T13:11:59.416Z,27.97
2022-08-20T13:13:05.177Z,27.82
2022-08-20T13:14:06.917Z,27.71
2022-08-20T13:15:09.183Z,27.63
2022-08-20T13:16:10.994Z,27.58
2022-08-20T13:17:12.698Z,27.56
2022-08-20T13:18:14.436Z,27.58
2022-08-20T13:19:16.122Z,27.63
2022-08-20T13:20:19.097Z,27.69
2022-08-20T13:21:23.881Z,27.76
2022-08-20T13:22:25.777Z,27.99
2022-08-20T13:23:27.417Z,28.10
2022-08-20T13:24:29.296Z,28.18
2022-08-20T13:25:31.673Z,28.31
2022-08-20T13:26:33.328Z,28.47
2022-08-20T13:27:38.367Z,28.74
2022-08-20T13:28:40.144Z,28.98
2022-08-20T13:29:50.942Z,29.15
2022-08-20T13:30:53.836Z,29.33
2022-08-20T13:31:55.500Z,29.53
2022-08-20T13:32:57.295Z,29.73
2022-08-20T13:33:59.223Z,29.94
2022-08-20T13:35:00.906Z,30.18
2022-08-20T13:36:02.716Z,30.41
2022-08-20T13:37:25.536Z,30.61
2022-08-20T13:38:28.166Z,30.90
2022-08-20T13:39:29.891Z,31.08
2022-08-20T13:40:31.894Z,31.17
2022-08-20T13:41:34.461Z,31.07
2022-08-20T13:42:36.746Z,30.86
2022-08-20T13:43:38.401Z,30.69
2022-08-20T13:44:40.633Z,30.63
2022-08-20T13:45:42.826Z,30.68
2022-08-20T13:46:44.650Z,30.62
2022-08-20T13:47:46.368Z,30.49
2022-08-20T13:48:48.068Z,30.40
2022-08-20T13:49:59.459Z,30.30